Time;durP1;ratioP1;P1;durP2;ratioP2;P2;SDS_P1;SDS_P2;PMS_P1;PMS_P2;Temp;Humidity;BMP_temperature;BMP_pressure;BME280_temperature;BME280_humidity;BME280_pressure;Samples;Min_cycle;Max_cycle;Signal;HPM_P1;HPM_P2
2023/10/01 00:03:27;;;;;;;10.70;5.97;;;;;;;14.20;55.13;100728.31;10468124;28;20340;-34
2023/10/01 00:08:29;;;;;;;9.40;5.87;;;;;;;16.03;51.37;100650.72;10476026;28;20316;-34
2023/10/01 00:13:31;;;;;;;9.13;5.73;;;;;;;16.02;48.57;100762.44;10481925;28;20241;-36
2023/10/01 00:18:34;;;;;;;8.77;5.43;;;;;;;15.58;49.39;100720.38;10484323;28;20254;-36
2023/10/01 00:23:36;;;;;;;9.33;6.77;;;;;;;14.60;49.83;100793.50;10482005;28;20318;-35
2023/10/01 00:28:38;;;;;;;9.63;6.97;;;;;;;15.90;48.75;100688.44;10483699;28;20231;-35
2023/10/01 00:33:41;;;;;;;8.93;6.17;;;;;;;14.74;49.57;100818.75;10480171;28;20277;-35
2023/10/01 00:38:43;;;;;;;8.50;5.83;;;;;;;14.83;49.52;100765.63;10481492;28;20239;-35
2023/10/01 00:43:45;;;;;;;8.13;5.90;;;;;;;13.83;52.14;100816.09;10485020;28;20231;-35
2023/10/01 00:48:48;;;;;;;8.63;6.00;;;;;;;13.45;52.97;100803.44;10482177;28;20326;-34
2023/10/01 00:53:51;;;;;;;9.83;5.90;;;;;;;15.61;50.23;100642.56;10413931;28;20249;-34
2023/10/01 00:58:52;;;;;;;7.83;6.00;;;;;;;14.02;51.82;100818.28;10417543;28;20238;-35
2023/10/01 01:03:55;;;;;;;8.33;5.20;;;;;;;14.02;51.68;100802.16;10413571;28;20232;-35
2023/10/01 01:08:57;;;;;;;9.30;5.40;;;;;;;13.76;54.18;100789.09;10417044;28;20233;-35
2023/10/01 01:14:01;;;;;;;14.07;7.47;;;;;;;14.29;53.68;100729.91;10417811;28;20263;-35
2023/10/01 01:19:03;;;;;;;10.67;6.83;;;;;;;12.86;56.30;100774.38;10414307;28;20705;-35
2023/10/01 01:24:07;;;;;;;11.10;6.97;;;;;;;13.23;56.21;100689.50;10415226;28;20239;-35
2023/10/01 01:29:29;;;;;;;9.90;6.93;;;;;;;14.39;53.69;100649.69;10407945;28;20236;-35
2023/10/01 01:34:33;;;;;;;8.67;6.23;;;;;;;14.16;52.61;100700.94;10415370;28;20246;-35
2023/10/01 01:39:48;;;;;;;9.43;6.27;;;;;;;13.48;53.60;100735.88;10413578;28;20594;-35
2023/10/01 01:50:19;;;;;;;9.73;5.83;;;;;;;13.76;51.49;100775.63;10428803;28;20616;-35
2023/10/01 01:55:26;;;;;;;8.70;6.00;;;;;;;13.16;53.41;100790.69;10480441;28;20467;-36
2023/10/01 02:00:31;;;;;;;9.27;5.07;;;;;;;14.26;50.88;100734.81;10479712;28;20231;-36
2023/10/01 02:05:34;;;;;;;7.60;5.10;;;;;;;14.97;48.43;100692.00;10481590;28;20235;-36
2023/10/01 02:10:46;;;;;;;10.27;4.80;;;;;;;14.53;49.58;100719.84;10479783;28;20235;-34
2023/10/01 02:15:49;;;;;;;8.10;5.47;;;;;;;15.49;48.13;100680.03;10482248;28;20221;-35
2023/10/01 02:20:55;;;;;;;8.27;5.47;;;;;;;14.51;49.12;100776.59;10463563;28;20234;-35
2023/10/01 02:26:00;;;;;;;6.73;5.30;;;;;;;14.82;48.46;100751.31;10460279;28;20233;-35
2023/10/01 02:31:06;;;;;;;9.90;6.23;;;;;;;15.03;48.09;100739.75;10456849;28;20238;-36
2023/10/01 02:36:12;;;;;;;9.83;6.20;;;;;;;14.16;49.32;100794.31;10475303;28;20219;-35
2023/10/01 02:41:15;;;;;;;9.87;6.40;;;;;;;14.20;49.88;100760.63;10475388;28;20281;-36
2023/10/01 02:46:22;;;;;;;9.50;7.20;;;;;;;14.86;50.20;100689.78;10457101;28;20231;-36
2023/10/01 02:51:37;;;;;;;11.90;7.17;;;;;;;14.15;52.02;100766.53;10474930;28;21384;-37
2023/10/01 02:56:52;;;;;;;10.07;7.37;;;;;;;15.23;49.93;100704.88;10445218;28;20227;-36
2023/10/01 03:01:55;;;;;;;9.77;7.23;;;;;;;15.66;49.04;100695.97;10475902;28;20245;-36
2023/10/01 03:06:57;;;;;;;11.07;7.63;;;;;;;14.87;50.65;100764.22;10479216;28;20242;-35
2023/10/01 03:17:23;;;;;;;12.40;7.90;;;;;;;15.16;50.65;100677.03;10477657;28;20287;-35
2023/10/01 03:22:31;;;;;;;10.37;6.83;;;;;;;14.66;50.11;100762.25;10474015;28;20312;-36
2023/10/01 03:27:38;;;;;;;10.10;7.80;;;;;;;15.08;49.89;100690.63;10477153;28;20281;-34
2023/10/01 03:32:40;;;;;;;9.13;6.53;;;;;;;15.09;49.28;100733.56;10476583;28;20334;-36
2023/10/01 03:37:43;;;;;;;11.37;6.77;;;;;;;14.82;49.32;100761.25;10478616;28;20230;-35
2023/10/01 03:42:51;;;;;;;9.27;6.20;;;;;;;13.82;50.22;100787.53;10477579;28;20246;-34
2023/10/01 03:47:59;;;;;;;7.33;5.53;;;;;;;14.01;48.83;100768.16;10481975;28;20230;-34
2023/10/01 03:53:10;;;;;;;16.77;9.00;;;;;;;13.05;51.12;100799.13;10486636;28;20297;-35
2023/10/01 03:58:25;;;;;;;15.27;9.13;;;;;;;13.63;50.81;100711.72;10485568;28;20230;-35
2023/10/01 04:03:36;;;;;;;20.80;9.27;;;;;;;13.48;52.33;100713.53;10486432;28;20285;-35
2023/10/01 04:08:44;;;;;;;19.27;7.37;;;;;;;12.85;53.94;100756.56;10485366;28;20231;-35
2023/10/01 04:14:07;;;;;;;9.87;6.67;;;;;;;13.51;52.89;100697.00;10487057;28;20231;-35
2023/10/01 04:19:11;;;;;;;8.37;6.03;;;;;;;14.48;51.07;100654.97;10485006;28;20235;-35
2023/10/01 04:24:13;;;;;;;9.63;6.50;;;;;;;14.10;52.08;100652.41;10485871;28;20245;-34
2023/10/01 04:29:18;;;;;;;8.57;5.67;;;;;;;13.51;52.48;100715.84;10467813;28;20269;-35
2023/10/01 04:34:20;;;;;;;10.93;6.40;;;;;;;14.13;51.33;100660.94;10485159;28;20208;-34
2023/10/01 04:39:22;;;;;;;10.57;7.00;;;;;;;13.21;53.05;100774.00;10482113;28;20974;-34
2023/10/01 04:44:24;;;;;;;9.57;5.67;;;;;;;13.85;52.37;100712.69;10484797;28;20227;-35
2023/10/01 04:49:27;;;;;;;7.23;5.00;;;;;;;14.38;51.99;100652.56;10482120;28;20242;-35
2023/10/01 04:54:37;;;;;;;6.87;5.00;;;;;;;14.13;52.15;100687.03;10485095;28;20631;-35
2023/10/01 04:59:56;;;;;;;7.97;5.57;;;;;;;14.62;51.03;100648.69;10484038;28;20812;-34
2023/10/01 05:05:09;;;;;;;7.97;6.00;;;;;;;14.85;50.07;100685.44;10468449;28;20572;-34
2023/10/01 05:10:13;;;;;;;10.17;6.30;;;;;;;14.48;51.48;100681.88;10484317;28;20235;-34
2023/10/01 05:15:18;;;;;;;8.60;5.87;;;;;;;14.70;50.32;100664.72;10481386;28;20346;-36
2023/10/01 05:20:19;;;;;;;9.50;6.73;;;;;;;14.53;51.19;100706.38;10479333;22;20240;-38
2023/10/01 05:25:24;;;;;;;8.90;6.20;;;;;;;13.72;52.16;100770.81;10389116;28;20224;-36
2023/10/01 05:30:36;;;;;;;10.57;6.57;;;;;;;14.00;51.83;100747.69;10394591;28;20235;-37
2023/10/01 05:35:47;;;;;;;11.27;5.70;;;;;;;14.23;51.12;100735.19;10389589;28;20817;-36
2023/10/01 05:40:54;;;;;;;7.70;5.37;;;;;;;13.94;51.54;100791.47;10387114;28;20232;-36
2023/10/01 05:46:01;;;;;;;6.57;4.63;;;;;;;14.19;51.38;100780.50;10371475;28;20602;-38
2023/10/01 05:51:06;;;;;;;5.83;4.30;;;;;;;14.29;51.42;100732.59;10386199;28;20691;-36
2023/10/01 05:56:11;;;;;;;7.33;5.30;;;;;;;13.73;51.80;100794.00;10388111;28;20235;-36
2023/10/01 06:01:16;;;;;;;4.87;4.20;;;;;;;14.42;51.25;100699.59;10373849;28;20228;-37
2023/10/01 06:06:24;;;;;;;6.93;4.50;;;;;;;13.98;51.82;100784.69;10389205;28;20286;-36
2023/10/01 06:16:49;;;;;;;5.53;4.67;;;;;;;13.52;52.61;100819.69;10388631;28;20221;-37
2023/10/01 06:21:53;;;;;;;6.83;5.03;;;;;;;13.32;53.75;100767.41;10386829;28;20244;-36
2023/10/01 06:26:56;;;;;;;6.43;4.17;;;;;;;13.63;53.15;100756.56;10391055;28;20254;-36
2023/10/01 06:32:00;;;;;;;8.83;5.67;;;;;;;14.23;52.35;100714.47;10372890;28;20318;-37
2023/10/01 06:37:05;;;;;;;8.63;5.30;;;;;;;15.08;50.50;100690.63;10384586;28;20232;-37
2023/10/01 06:42:25;;;;;;;8.00;5.20;;;;;;;14.76;51.47;100758.28;10373885;28;20240;-37
2023/10/01 06:47:28;;;;;;;8.13;5.60;;;;;;;12.72;56.26;100847.59;10389640;28;20339;-37
2023/10/01 06:52:34;;;;;;;8.87;5.40;;;;;;;12.72;56.38;100796.56;10388928;28;20233;-37
2023/10/01 06:57:38;;;;;;;18.90;10.60;;;;;;;13.13;55.38;100787.47;10369639;28;20229;-37
2023/10/01 07:02:40;;;;;;;12.83;7.97;;;;;;;13.19;56.07;100811.78;10388989;28;20632;-37
2023/10/01 07:07:48;;;;;;;26.20;16.27;;;;;;;14.01;54.18;100759.28;10383066;28;20695;-37
2023/10/01 07:13:04;;;;;;;13.17;7.40;;;;;;;14.65;53.42;100728.28;10389151;28;20236;-38
2023/10/01 07:18:15;;;;;;;9.10;6.33;;;;;;;13.65;56.76;100765.31;10387981;28;20224;-37
2023/10/01 07:23:21;;;;;;;8.73;6.13;;;;;;;13.89;55.52;100747.28;10394590;28;20351;-37
2023/10/01 07:28:24;;;;;;;12.57;7.13;;;;;;;14.89;54.25;100676.75;10396307;28;20240;-37
2023/10/01 07:33:28;;;;;;;13.33;7.50;;;;;;;13.97;56.14;100768.72;10391602;28;20688;-36
2023/10/01 07:38:46;;;;;;;11.23;7.70;;;;;;;14.18;55.00;100833.47;10398188;28;20298;-37
2023/10/01 07:44:07;;;;;;;9.90;7.23;;;;;;;14.99;53.50;100811.22;10381204;28;20240;-37
2023/10/01 07:49:09;;;;;;;12.27;7.47;;;;;;;15.73;52.42;100791.28;10394868;28;20608;-37
2023/10/01 07:54:11;;;;;;;10.70;7.40;;;;;;;15.55;53.02;100815.16;10395443;28;20785;-37
2023/10/01 07:59:33;;;;;;;12.47;8.33;;;;;;;14.91;54.70;100884.94;10394522;28;20247;-37
2023/10/01 08:04:51;;;;;;;12.80;8.27;;;;;;;14.46;55.97;100897.50;10372180;28;20224;-37
2023/10/01 08:09:54;;;;;;;12.83;8.33;;;;;;;15.74;53.88;100741.69;10396133;28;20244;-37
2023/10/01 08:20:21;;;;;;;11.67;7.23;;;;;;;16.21;52.29;100795.97;10392781;28;20287;-37
2023/10/01 08:25:25;;;;;;;10.73;7.30;;;;;;;16.81;51.02;100904.47;10392231;28;20243;-37
2023/10/01 08:31:01;;;;;;;11.90;6.73;;;;;;;17.02;51.14;100814.34;10394999;28;20335;-37
2023/10/01 08:36:12;;;;;;;11.87;6.60;;;;;;;16.33;51.85;100917.84;10390278;28;20225;-38
2023/10/01 08:41:35;;;;;;;12.77;7.53;;;;;;;17.07;50.65;100821.84;10393785;28;20247;-38
2023/10/01 08:46:40;;;;;;;9.33;6.90;;;;;;;16.91;50.71;100869.81;10375023;28;20290;-38
2023/10/01 08:51:43;;;;;;;14.17;7.57;;;;;;;16.36;52.21;100871.53;10394108;28;20240;-38
2023/10/01 08:56:46;;;;;;;10.50;7.10;;;;;;;16.69;51.89;100893.38;10392257;28;20986;-37
2023/10/01 09:01:47;;;;;;;10.70;7.43;;;;;;;17.83;50.10;100824.34;10376483;28;20267;-36
2023/10/01 09:06:59;;;;;;;11.07;7.57;;;;;;;18.39;48.94;100819.50;10364670;28;20559;-36
2023/10/01 09:12:18;;;;;;;11.53;7.10;;;;;;;18.24;48.90;100807.00;10392761;28;20231;-36
2023/10/01 09:17:24;;;;;;;10.73;6.90;;;;;;;17.31;50.74;100899.75;10394648;28;20582;-37
2023/10/01 09:27:33;;;;;;;11.63;6.70;;;;;;;18.68;48.42;100788.38;10392417;28;20290;-36
2023/10/01 09:32:51;;;;;;;9.10;6.13;;;;;;;19.31;47.74;100784.13;10370486;28;20243;-36
2023/10/01 09:38:13;;;;;;;9.80;6.43;;;;;;;18.38;49.03;100864.75;10389577;28;20240;-37
2023/10/01 09:43:19;;;;;;;10.83;6.23;;;;;;;18.54;48.97;100846.38;10387277;28;20241;-39
2023/10/01 09:48:29;;;;;;;9.90;6.33;;;;;;;18.62;48.02;100857.84;10391479;28;20348;-37
2023/10/01 09:53:44;;;;;;;11.20;6.73;;;;;;;19.54;46.78;100781.66;10387957;28;20248;-38
2023/10/01 09:58:49;;;;;;;10.53;6.87;;;;;;;20.15;45.80;100809.16;10389926;28;20263;-37
2023/10/01 10:03:54;;;;;;;12.23;7.82;;;;;;;20.10;44.77;100850.56;10387254;28;20969;-37
2023/10/01 10:09:04;;;;;;;9.77;6.72;;;;;;;20.56;44.48;100776.97;10390636;28;20233;-37
2023/10/01 10:14:27;;;;;;;10.97;8.33;;;;;;;18.08;47.75;100910.34;10372851;28;20233;-37
2023/10/01 10:19:47;;;;;;;13.13;8.13;;;;;;;19.04;46.77;100768.00;10388789;28;20228;-36
2023/10/01 10:24:54;;;;;;;14.05;8.73;;;;;;;19.53;45.30;100817.16;10389541;28;20209;-36
2023/10/01 10:30:05;;;;;;;9.95;7.20;;;;;;;19.36;45.26;100842.09;10388830;28;20233;-37
2023/10/01 10:35:12;;;;;;;10.18;6.45;;;;;;;20.27;44.44;100730.47;10388849;28;20228;-39
2023/10/01 10:45:23;;;;;;;11.38;5.97;;;;;;;21.02;43.37;100738.31;10388820;28;20687;-37
2023/10/01 10:50:45;;;;;;;10.77;6.75;;;;;;;20.25;44.16;100814.13;10370629;28;20607;-37
2023/10/01 10:55:53;;;;;;;11.15;6.60;;;;;;;21.48;42.01;100765.94;10386889;28;20343;-37
2023/10/01 11:06:18;;;;;;;10.00;5.97;;;;;;;19.42;46.33;100723.72;10495052;27;20357;-72
2023/10/01 11:11:39;;;;;;;11.23;5.93;;;;;;;18.85;46.49;100750.75;10435817;28;20318;-72
2023/10/01 11:16:48;;;;;;;9.98;5.57;;;;;;;19.49;45.39;100758.94;10416636;28;20235;-72
2023/10/01 11:22:00;;;;;;;11.18;6.00;;;;;;;19.14;44.97;100790.06;10407688;28;20236;-72
2023/10/01 11:27:14;;;;;;;10.30;5.80;;;;;;;20.62;44.34;100703.47;10404035;28;20287;-72
2023/10/01 11:32:17;;;;;;;9.23;6.13;;;;;;;20.23;44.38;100740.97;10404158;28;20221;-72
2023/10/01 11:37:19;;;;;;;10.85;5.95;;;;;;;20.17;43.74;100741.03;10404490;28;20232;-73
2023/10/01 11:42:35;;;;;;;8.57;5.47;;;;;;;20.64;43.28;100733.16;10405806;28;20228;-72
2023/10/01 11:48:04;;;;;;;8.45;5.15;;;;;;;20.73;43.21;100677.38;10409299;28;20250;-72
2023/10/01 11:53:07;;;;;;;11.68;5.60;;;;;;;20.00;44.71;100754.34;10444006;28;20282;-72
2023/10/01 11:58:16;;;;;;;9.15;5.43;;;;;;;20.19;44.35;100698.16;10401900;28;20756;-72
2023/10/01 12:03:18;;;;;;;10.43;6.68;;;;;;;20.92;42.73;100690.97;10400238;28;20236;-72
2023/10/01 12:08:34;;;;;;;10.05;5.53;;;;;;;20.79;43.10;100711.03;10400510;28;20228;-72
2023/10/01 12:13:36;;;;;;;12.18;6.93;;;;;;;20.90;42.60;100715.69;10400469;28;20386;-73
2023/10/01 12:18:46;;;;;;;11.27;6.20;;;;;;;21.15;42.40;100666.53;10374035;28;20734;-72
2023/10/01 12:23:49;;;;;;;11.45;6.43;;;;;;;20.51;42.63;100726.00;10372048;28;20243;-72
2023/10/01 12:34:11;;;;;;;12.18;5.80;;;;;;;21.33;42.30;100659.34;10371671;28;20246;-72
2023/10/01 12:44:31;;;;;;;10.75;5.50;;;;;;;21.89;41.58;100624.41;10379191;28;20224;-72
2023/10/01 12:49:34;;;;;;;12.27;5.53;;;;;;;21.84;42.04;100592.44;10400686;28;20236;-72
2023/10/01 12:54:36;;;;;;;11.15;6.28;;;;;;;20.85;42.96;100613.03;10372332;28;20286;-72
2023/10/01 12:59:44;;;;;;;12.55;5.95;;;;;;;21.34;42.31;100626.47;10378052;28;20236;-73
2023/10/01 13:04:49;;;;;;;8.98;5.50;;;;;;;20.95;42.56;100672.31;10376897;28;20747;-72
2023/10/01 13:20:26;;;;;;;8.88;5.53;;;;;;;21.77;41.92;100614.34;10372348;28;20283;-72
2023/10/01 13:25:28;;;;;;;9.38;5.50;;;;;;;22.38;42.11;100532.19;10376325;28;20774;-73
2023/10/01 13:31:03;;;;;;;10.75;4.97;;;;;;;21.24;42.33;100651.53;10377919;28;20296;-73
2023/10/01 13:35:58;;;;;;;11.30;5.90;;;;;;;22.07;43.46;100541.72;10375216;28;20229;-73
2023/10/01 14:12:56;;;;;;;10.82;5.65;;;;;;;21.89;42.32;100532.59;10381637;28;20240;-72
2023/10/01 14:18:00;;;;;;;11.32;6.03;;;;;;;21.72;43.50;100548.88;10382173;28;20799;-72
2023/10/01 14:23:02;;;;;;;9.68;5.43;;;;;;;21.89;42.81;100531.78;10419969;28;20330;-72
2023/10/01 14:28:04;;;;;;;11.20;5.88;;;;;;;21.63;43.07;100520.38;10378785;28;20240;-72
2023/10/01 14:33:23;;;;;;;9.38;5.85;;;;;;;21.97;42.50;100479.66;10377426;28;20227;-72
2023/10/01 14:38:26;;;;;;;9.80;5.65;;;;;;;21.66;43.04;100538.97;10374114;28;20827;-73
2023/10/01 14:43:27;;;;;;;10.15;5.05;;;;;;;21.86;42.17;100505.84;10380015;28;20320;-72
2023/10/01 14:48:38;;;;;;;8.77;5.18;;;;;;;22.02;42.08;100474.31;10373946;28;20272;-72
2023/10/01 14:53:40;;;;;;;9.25;5.30;;;;;;;21.54;43.46;100484.53;10375164;28;20240;-73
2023/10/01 14:58:42;;;;;;;8.57;5.03;;;;;;;22.29;42.02;100458.16;10378395;28;20252;-72
2023/10/01 15:03:44;;;;;;;9.00;5.22;;;;;;;21.13;43.37;100559.00;10370848;28;20243;-72
2023/10/01 15:08:46;;;;;;;10.10;5.50;;;;;;;22.31;42.64;100447.00;10373980;28;20328;-72
2023/10/01 15:13:48;;;;;;;10.07;5.43;;;;;;;21.80;42.31;100493.22;10372325;28;20236;-72
2023/10/01 15:19:00;;;;;;;7.95;5.07;;;;;;;21.81;43.20;100469.50;10372882;28;20260;-72
2023/10/01 15:24:07;;;;;;;9.70;5.80;;;;;;;21.49;43.21;100486.31;10374357;28;20236;-72
2023/10/01 15:29:11;;;;;;;9.10;5.57;;;;;;;21.90;42.24;100455.25;10370537;28;20235;-73
2023/10/01 15:34:18;;;;;;;9.73;5.78;;;;;;;21.63;42.27;100501.31;10368825;28;20684;-72
2023/10/01 15:44:46;;;;;;;9.35;6.05;;;;;;;21.88;41.91;100500.16;10368458;28;20306;-72
2023/10/01 15:49:55;;;;;;;10.35;5.20;;;;;;;22.16;41.44;100485.72;10381060;28;20240;-72
2023/10/01 15:54:58;;;;;;;11.18;5.65;;;;;;;22.49;41.00;100482.22;10375320;28;20518;-72
2023/10/01 16:00:00;;;;;;;10.27;5.78;;;;;;;22.09;41.97;100485.88;10377086;28;20241;-72
2023/10/01 16:05:05;;;;;;;9.50;5.68;;;;;;;22.34;40.63;100503.75;10375911;28;20232;-72
2023/10/01 16:10:11;;;;;;;9.15;5.15;;;;;;;22.22;41.53;100494.81;10374210;28;20255;-73
2023/10/01 16:15:15;;;;;;;10.07;4.95;;;;;;;22.26;42.40;100453.19;10379026;28;20672;-73
2023/10/01 16:20:18;;;;;;;9.50;5.03;;;;;;;22.12;43.14;100469.03;10374391;28;20265;-73
2023/10/01 16:25:34;;;;;;;8.98;5.32;;;;;;;22.58;42.05;100424.56;10379411;28;20242;-73
2023/10/01 16:30:36;;;;;;;10.27;5.50;;;;;;;22.56;41.75;100445.81;10374484;28;20337;-73
2023/10/01 16:35:38;;;;;;;10.43;5.50;;;;;;;22.06;41.95;100497.25;10377233;28;20327;-73
2023/10/01 16:40:40;;;;;;;10.02;5.88;;;;;;;22.56;41.61;100446.63;10378212;28;20681;-72
2023/10/01 16:45:43;;;;;;;9.50;5.10;;;;;;;21.77;42.07;100489.06;10377449;28;20243;-72
2023/10/01 16:51:17;;;;;;;9.50;5.20;;;;;;;22.59;41.46;100431.66;10380758;28;20374;-72
2023/10/01 16:56:12;;;;;;;8.82;5.20;;;;;;;21.33;43.19;100502.28;10383311;28;20318;-73
2023/10/01 17:01:18;;;;;;;9.73;5.40;;;;;;;21.69;42.85;100477.72;10376220;28;20240;-72
2023/10/01 17:06:24;;;;;;;10.52;5.32;;;;;;;22.21;41.40;100444.94;10379058;28;20642;-72
2023/10/01 17:11:29;;;;;;;9.25;4.93;;;;;;;22.17;41.35;100465.59;10385143;28;20229;-72
2023/10/01 17:16:31;;;;;;;8.88;5.57;;;;;;;22.26;41.37;100469.53;10380324;28;20295;-72
2023/10/01 17:21:36;;;;;;;11.32;5.53;;;;;;;20.81;44.04;100472.31;10378412;28;20237;-72
2023/10/01 17:26:51;;;;;;;12.05;5.47;;;;;;;21.26;43.52;100441.72;10378070;28;22318;-72
2023/10/01 17:31:57;;;;;;;8.18;4.78;;;;;;;20.16;45.42;100446.75;10378423;28;20255;-72
2023/10/01 17:37:07;;;;;;;10.20;6.30;;;;;;;20.83;44.99;100377.69;10380555;28;20233;-72
2023/10/01 17:42:14;;;;;;;9.95;5.28;;;;;;;20.71;44.84;100431.25;10385752;28;20279;-71
2023/10/01 17:47:22;;;;;;;9.45;5.07;;;;;;;20.56;45.20;100423.56;10377590;28;20416;-72
2023/10/01 17:52:25;;;;;;;8.90;5.03;;;;;;;20.88;44.87;100366.09;10378887;28;20237;-72
2023/10/01 17:57:36;;;;;;;10.90;5.43;;;;;;;21.68;43.33;100381.59;10382334;28;20810;-72
2023/10/01 18:02:45;;;;;;;9.63;6.07;;;;;;;21.17;44.31;100459.47;10382959;28;20240;-71
2023/10/01 18:08:04;;;;;;;10.95;5.80;;;;;;;21.84;43.32;100409.91;10384795;28;20229;-71
2023/10/01 18:13:10;;;;;;;9.63;5.45;;;;;;;21.97;42.63;100433.34;10412030;28;20706;-71
2023/10/01 18:18:13;;;;;;;11.02;5.85;;;;;;;20.03;45.49;100493.13;10431684;28;20227;-71
2023/10/01 18:23:19;;;;;;;9.82;5.78;;;;;;;19.01;47.19;100443.81;10420624;28;20240;-72
2023/10/01 18:28:25;;;;;;;10.32;5.68;;;;;;;19.29;46.26;100425.34;10435400;28;20674;-72
2023/10/01 18:33:32;;;;;;;10.10;5.43;;;;;;;18.87;47.28;100417.03;10428111;28;20799;-72
2023/10/01 18:38:34;;;;;;;9.75;5.38;;;;;;;18.35;47.99;100449.81;10427373;28;20238;-72
2023/10/01 18:43:36;;;;;;;10.40;5.68;;;;;;;19.13;47.07;100380.66;10426402;28;20331;-72
2023/10/01 18:48:39;;;;;;;9.93;5.45;;;;;;;19.47;45.87;100438.06;10426414;28;20236;-72
2023/10/01 18:53:42;;;;;;;9.77;5.75;;;;;;;18.64;47.82;100462.72;10426470;28;20239;-71
2023/10/01 18:58:46;;;;;;;10.30;5.47;;;;;;;18.80;47.59;100408.97;10427998;28;20231;-72
2023/10/01 19:03:49;;;;;;;10.30;6.25;;;;;;;20.36;45.34;100402.16;10425152;28;20227;-72
2023/10/01 19:08:51;;;;;;;9.20;5.45;;;;;;;20.65;45.32;100424.88;10428915;28;20247;-72
2023/10/01 19:13:54;;;;;;;12.60;7.55;;;;;;;20.40;44.86;100458.53;10429853;28;20236;-72
2023/10/01 19:18:57;;;;;;;10.30;5.50;;;;;;;17.66;49.49;100482.06;10424746;28;20239;-72
2023/10/01 19:23:58;;;;;;;10.43;5.45;;;;;;;18.33;48.03;100460.03;10425482;28;21018;-73
2023/10/01 19:29:01;;;;;;;12.77;6.03;;;;;;;17.59;49.88;100433.34;10428083;28;20224;-72
2023/10/01 19:34:03;;;;;;;9.90;6.28;;;;;;;17.16;51.36;100452.88;10435062;28;20272;-72
2023/10/01 19:39:05;;;;;;;11.48;6.25;;;;;;;17.19;52.68;100382.09;10428452;28;20252;-72
2023/10/01 19:44:12;;;;;;;16.50;6.35;;;;;;;16.86;52.75;100411.94;10434408;28;20732;-72
2023/10/01 19:49:17;;;;;;;12.38;6.18;;;;;;;17.83;50.07;100430.97;10425685;28;20273;-72
2023/10/01 19:54:18;;;;;;;10.40;5.90;;;;;;;17.31;51.35;100407.47;10429461;28;20342;-68
2023/10/01 19:59:21;;;;;;;10.82;5.93;;;;;;;18.20;49.07;100414.88;10429999;28;20235;-69
2023/10/01 20:04:24;;;;;;;10.35;6.60;;;;;;;17.00;50.53;100454.13;10427087;28;20235;-70
2023/10/01 20:09:27;;;;;;;12.40;6.82;;;;;;;16.53;51.61;100458.72;10430138;28;20278;-69
2023/10/01 20:14:34;;;;;;;10.65;6.07;;;;;;;16.75;51.40;100421.50;10424325;28;20263;-70
2023/10/01 20:19:43;;;;;;;11.47;6.60;;;;;;;16.91;50.29;100410.25;10431909;28;20256;-70
2023/10/01 20:24:49;;;;;;;13.45;6.45;;;;;;;16.29;52.04;100434.00;10433582;28;20651;-69
2023/10/01 20:29:55;;;;;;;11.38;6.00;;;;;;;16.50;51.39;100391.59;10430229;28;20794;-69
2023/10/01 20:34:58;;;;;;;9.80;5.95;;;;;;;16.91;50.11;100429.16;10429641;28;20411;-70
2023/10/01 20:40:08;;;;;;;10.83;6.47;;;;;;;16.06;51.95;100448.69;10423354;28;20227;-69
2023/10/01 20:45:20;;;;;;;10.50;5.57;;;;;;;16.15;51.75;100411.53;10428608;28;20699;-70
2023/10/01 20:50:36;;;;;;;11.27;6.18;;;;;;;16.04;52.09;100429.16;10430474;28;20249;-70
2023/10/01 20:55:38;;;;;;;12.27;7.07;;;;;;;16.55;50.81;100419.66;10424968;28;20285;-70
2023/10/01 21:00:42;;;;;;;11.23;6.23;;;;;;;16.73;50.08;100478.47;10424056;28;20252;-70
2023/10/01 21:05:44;;;;;;;10.93;6.57;;;;;;;17.08;50.03;100393.63;10421133;28;20231;-70
2023/10/01 21:10:46;;;;;;;9.37;5.97;;;;;;;17.77;47.69;100499.50;10420122;28;20536;-70
2023/10/01 21:15:53;;;;;;;11.73;5.57;;;;;;;17.86;47.61;100480.06;10428284;28;20235;-69
2023/10/01 21:20:58;;;;;;;10.43;5.40;;;;;;;18.14;46.85;100473.47;10424293;28;20247;-69
2023/10/01 21:26:00;;;;;;;10.70;6.10;;;;;;;18.42;47.01;100427.03;10424978;28;20233;-69
2023/10/01 21:31:03;;;;;;;12.30;6.43;;;;;;;17.84;47.77;100497.59;10433526;28;20233;-70
2023/10/01 21:36:19;;;;;;;10.02;5.72;;;;;;;18.09;47.21;100489.56;10414054;28;20757;-70
2023/10/01 21:41:21;;;;;;;10.25;6.25;;;;;;;17.85;47.83;100494.69;10422666;28;20232;-69
2023/10/01 21:46:25;;;;;;;9.50;6.05;;;;;;;18.43;46.52;100452.25;10388287;28;20224;-69
2023/10/01 21:51:28;;;;;;;10.93;6.38;;;;;;;18.28;47.14;100461.50;10408239;28;20730;-69
2023/10/01 21:56:35;;;;;;;9.85;5.60;;;;;;;17.64;48.16;100494.97;10392199;28;20288;-69
2023/10/01 22:01:44;;;;;;;11.23;6.22;;;;;;;16.25;51.22;100465.94;10372154;28;20248;-69
2023/10/01 22:06:59;;;;;;;11.32;5.88;;;;;;;17.67;48.16;100414.19;10370599;28;20244;-70
2023/10/01 22:12:02;;;;;;;10.63;6.07;;;;;;;17.04;49.23;100470.75;10372484;28;20248;-69
2023/10/01 22:17:05;;;;;;;11.07;5.77;;;;;;;16.98;49.10;100502.19;10377169;28;20233;-69
2023/10/01 22:22:07;;;;;;;9.40;5.47;;;;;;;17.31;48.40;100437.22;10377674;28;20379;-70
2023/10/01 22:27:11;;;;;;;9.93;6.30;;;;;;;17.81;47.41;100435.75;10378015;28;20235;-69
2023/10/01 22:32:14;;;;;;;10.05;6.00;;;;;;;17.70;47.33;100467.88;10380071;28;20687;-70
2023/10/01 22:37:17;;;;;;;11.10;5.83;;;;;;;17.42;47.71;100451.13;10377399;28;20244;-70
2023/10/01 22:42:22;;;;;;;8.63;5.20;;;;;;;15.87;50.63;100485.38;10378772;28;20239;-69
2023/10/01 22:47:29;;;;;;;9.67;5.50;;;;;;;15.47;52.85;100466.31;10411621;28;20263;-69
2023/10/01 22:52:33;;;;;;;9.77;5.97;;;;;;;16.52;52.24;100379.56;10423260;28;20235;-70
2023/10/01 22:57:40;;;;;;;12.10;6.50;;;;;;;18.01;48.17;100379.59;10392399;28;20241;-70
2023/10/01 23:02:47;;;;;;;9.60;5.67;;;;;;;17.38;47.67;100431.78;10376010;28;20268;-70
2023/10/01 23:07:50;;;;;;;9.00;5.67;;;;;;;17.13;47.74;100466.81;10382560;28;20231;-70
2023/10/01 23:13:06;;;;;;;11.07;6.03;;;;;;;16.22;48.81;100519.53;10379853;28;20235;-69
2023/10/01 23:18:10;;;;;;;9.80;5.83;;;;;;;16.06;51.55;100474.84;10383956;28;20577;-70
2023/10/01 23:23:15;;;;;;;11.00;6.57;;;;;;;17.83;49.13;100361.44;10413481;28;20228;-69
2023/10/01 23:28:16;;;;;;;12.33;6.77;;;;;;;18.18;48.40;100419.69;10375750;28;20209;-69
2023/10/01 23:33:19;;;;;;;11.47;6.30;;;;;;;18.19;48.10;100440.31;10377288;28;20851;-70
2023/10/01 23:38:27;;;;;;;12.00;6.40;;;;;;;17.75;48.92;100456.41;10379760;28;21892;-69
2023/10/01 23:48:52;;;;;;;11.33;6.00;;;;;;;17.19;47.25;100482.16;10376917;28;20315;-70
2023/10/01 23:53:54;;;;;;;11.80;6.07;;;;;;;17.18;48.59;100488.63;10377656;28;20612;-70
2023/10/01 23:58:56;;;;;;;9.13;6.03;;;;;;;17.30;48.25;100465.28;10372593;28;20231;-69
